Time;durP1;ratioP1;P1;durP2;ratioP2;P2;SDS_P1;SDS_P2;PMS_P1;PMS_P2;Temp;Humidity;BMP_temperature;BMP_pressure;BME280_temperature;BME280_humidity;BME280_pressure;Samples;Min_cycle;Max_cycle;Signal;HPM_P1;HPM_P2
2022/04/17 00:02:12;;;;;;;8.80;5.30;;;;;;;3.40;51.45;101440.98;106163;1273;137275;-72
2022/04/17 00:04:45;;;;;;;10.00;5.30;;;;;;;3.35;51.51;101440.38;106283;1274;112552;-72
2022/04/17 00:07:17;;;;;;;7.60;5.30;;;;;;;3.30;51.65;101440.47;106158;1273;137950;-72
2022/04/17 00:09:49;;;;;;;9.10;5.10;;;;;;;3.26;51.50;101438.52;106179;1273;108778;-72
2022/04/17 00:12:23;;;;;;;8.50;4.90;;;;;;;3.22;51.80;101435.88;106300;1273;98207;-72
2022/04/17 00:14:56;;;;;;;9.50;5.30;;;;;;;3.20;52.18;101433.07;106312;1272;138945;-72
2022/04/17 00:17:28;;;;;;;7.30;4.80;;;;;;;3.17;52.20;101433.02;106302;1274;112475;-73
2022/04/17 00:20:00;;;;;;;9.20;5.00;;;;;;;3.14;52.16;101428.34;106162;1274;137724;-73
2022/04/17 00:22:33;;;;;;;8.60;4.50;;;;;;;3.12;52.19;101429.17;106249;1274;108823;-73
2022/04/17 00:25:08;;;;;;;8.40;4.70;;;;;;;3.10;52.34;101428.80;106791;1270;138046;-74
2022/04/17 00:27:40;;;;;;;7.50;4.80;;;;;;;3.07;52.49;101432.19;106554;1270;97912;-72
2022/04/17 00:30:12;;;;;;;10.50;5.00;;;;;;;3.04;52.43;101434.17;106490;1269;112589;-73
2022/04/17 00:32:44;;;;;;;8.50;4.90;;;;;;;3.00;52.67;101432.05;106355;1270;139008;-73
2022/04/17 00:35:18;;;;;;;6.60;4.70;;;;;;;2.98;52.82;101434.09;106427;1268;108496;-72
2022/04/17 00:37:50;;;;;;;7.80;4.80;;;;;;;2.95;52.79;101433.86;106420;1270;137493;-73
2022/04/17 00:40:23;;;;;;;9.80;5.40;;;;;;;2.93;52.74;101432.27;106599;1270;97806;-74
2022/04/17 00:42:55;;;;;;;8.20;4.70;;;;;;;2.90;53.01;101434.13;106600;1270;111472;-72
2022/04/17 00:45:28;;;;;;;9.40;4.60;;;;;;;2.87;53.07;101427.02;106501;1270;137831;-73
2022/04/17 00:48:00;;;;;;;11.10;5.40;;;;;;;2.85;53.15;101424.21;106549;1269;108889;-72
2022/04/17 00:50:32;;;;;;;8.60;5.20;;;;;;;2.82;53.23;101429.15;106426;1270;137779;-72
2022/04/17 00:53:04;;;;;;;6.50;4.40;;;;;;;2.81;53.33;101423.29;106527;1270;97715;-73
2022/04/17 00:55:36;;;;;;;9.10;5.10;;;;;;;2.79;53.61;101421.53;106425;1270;137579;-72
2022/04/17 00:58:09;;;;;;;9.40;4.50;;;;;;;2.80;53.81;101418.80;106552;1270;108748;-72
2022/04/17 01:00:42;;;;;;;7.40;4.40;;;;;;;2.81;54.00;101417.29;106549;1270;108708;-73
2022/04/17 01:03:17;;;;;;;8.90;4.40;;;;;;;2.83;53.87;101420.73;106423;1269;139915;-71
2022/04/17 01:05:49;;;;;;;9.80;4.90;;;;;;;2.82;53.89;101419.19;106581;1269;97827;-72
2022/04/17 01:08:21;;;;;;;11.30;5.50;;;;;;;2.84;53.80;101421.45;106771;1269;138168;-72
2022/04/17 01:10:53;;;;;;;7.20;4.30;;;;;;;2.82;53.73;101418.84;106511;1270;108349;-72
2022/04/17 01:13:25;;;;;;;8.80;4.70;;;;;;;2.80;53.70;101414.86;106394;1270;138333;-72
2022/04/17 01:15:59;;;;;;;7.40;4.60;;;;;;;2.76;53.85;101414.11;106509;1270;97878;-73
2022/04/17 01:18:52;;;;;;;7.50;5.10;;;;;;;2.75;54.00;101414.27;106570;1270;97795;-73
2022/04/17 01:21:24;;;;;;;12.70;4.70;;;;;;;2.75;53.96;101410.14;106460;1269;137190;-73
2022/04/17 01:26:58;;;;;;;8.30;4.70;;;;;;;2.73;54.09;101405.80;106380;1270;137494;-71
2022/04/17 01:29:32;;;;;;;8.40;4.80;;;;;;;2.72;54.07;101403.23;106532;1270;97951;-71
2022/04/17 01:32:06;;;;;;;7.40;4.50;;;;;;;2.72;54.07;101398.06;106467;1269;137268;-72
2022/04/17 01:34:39;;;;;;;10.20;4.90;;;;;;;2.70;54.25;101397.17;106622;1268;113030;-72
2022/04/17 01:37:11;;;;;;;7.20;4.40;;;;;;;2.69;54.22;101396.11;106425;1270;138460;-71
2022/04/17 01:39:43;;;;;;;8.30;4.40;;;;;;;2.69;54.21;101391.30;106493;1270;107855;-72
2022/04/17 01:42:16;;;;;;;8.40;4.90;;;;;;;2.68;54.32;101391.96;106492;1269;97874;-72
2022/04/17 01:44:51;;;;;;;10.50;5.00;;;;;;;2.68;54.56;101392.98;106394;1270;137368;-71
2022/04/17 01:47:23;;;;;;;8.80;4.80;;;;;;;2.66;54.44;101389.36;106589;1270;111990;-72
2022/04/17 01:49:55;;;;;;;7.90;4.90;;;;;;;2.64;54.34;101387.24;106405;1268;137461;-71
2022/04/17 01:52:28;;;;;;;8.30;4.50;;;;;;;2.62;54.44;101387.05;106543;1268;110022;-72
2022/04/17 01:54:59;;;;;;;7.30;4.70;;;;;;;2.58;54.61;101382.85;106574;1268;97943;-71
2022/04/17 01:57:31;;;;;;;8.00;5.10;;;;;;;2.56;54.65;101379.04;106455;1268;137209;-73
2022/04/17 02:00:04;;;;;;;8.40;4.80;;;;;;;2.52;54.68;101381.02;106460;1270;112565;-73
2022/04/17 02:02:36;;;;;;;8.30;5.10;;;;;;;2.51;54.65;101378.08;106681;1260;108917;-71
2022/04/17 02:05:09;;;;;;;9.10;5.10;;;;;;;2.48;54.68;101378.02;106472;1268;108329;-71
2022/04/17 02:07:41;;;;;;;9.30;5.00;;;;;;;2.45;54.94;101377.80;106434;1269;137904;-70
2022/04/17 02:10:19;;;;;;;10.70;5.00;;;;;;;2.42;55.03;101374.33;106449;1271;97916;-72
2022/04/17 02:12:51;;;;;;;10.80;4.20;;;;;;;2.40;55.06;101370.50;106452;1268;112356;-71
2022/04/17 02:15:23;;;;;;;7.60;4.70;;;;;;;2.38;55.01;101372.02;106258;1271;138578;-71
2022/04/17 02:17:55;;;;;;;9.70;4.50;;;;;;;2.36;55.38;101375.25;106434;1270;108346;-71
2022/04/17 02:20:27;;;;;;;9.40;4.20;;;;;;;2.35;55.36;101373.52;106552;1270;139262;-71
2022/04/17 02:23:00;;;;;;;8.40;4.40;;;;;;;2.33;55.44;101377.23;106132;1270;294285;-71
2022/04/17 02:25:32;;;;;;;11.30;4.90;;;;;;;2.33;55.59;101379.44;106495;1270;111591;-71
2022/04/17 02:28:05;;;;;;;7.10;4.60;;;;;;;2.32;55.79;101378.92;106350;1271;138638;-71
2022/04/17 02:30:37;;;;;;;6.50;4.30;;;;;;;2.34;55.88;101375.91;106583;1270;108884;-72
2022/04/17 02:33:09;;;;;;;11.60;5.10;;;;;;;2.34;56.18;101373.15;106442;1270;138229;-72
2022/04/17 02:35:41;;;;;;;10.60;5.10;;;;;;;2.33;56.06;101373.27;106370;1271;97835;-72
2022/04/17 02:38:14;;;;;;;9.50;5.30;;;;;;;2.31;56.18;101370.66;106670;1270;138638;-72
2022/04/17 02:40:46;;;;;;;7.80;5.20;;;;;;;2.29;56.36;101370.96;106507;1270;107348;-72
2022/04/17 02:43:18;;;;;;;11.50;6.00;;;;;;;2.27;56.31;101371.45;106530;1271;108348;-72
2022/04/17 02:45:53;;;;;;;9.10;5.00;;;;;;;2.26;56.57;101369.04;106232;1270;138402;-72
2022/04/17 02:48:25;;;;;;;10.90;5.60;;;;;;;2.25;56.66;101371.58;106676;1270;97893;-72
2022/04/17 02:50:57;;;;;;;9.50;5.50;;;;;;;2.23;56.78;101366.73;106297;1270;138529;-72
2022/04/17 02:53:30;;;;;;;11.20;5.90;;;;;;;2.19;56.99;101367.52;106356;1270;108858;-72
2022/04/17 02:56:02;;;;;;;8.80;5.20;;;;;;;2.15;57.17;101364.88;106336;1270;139520;-71
2022/04/17 02:58:34;;;;;;;8.90;5.40;;;;;;;2.11;57.39;101365.30;106381;1270;97950;-72
2022/04/17 03:06:46;;;;;;;9.10;5.20;;;;;;;1.93;57.95;101362.70;106306;1273;108975;-72
2022/04/17 03:09:18;;;;;;;9.40;5.50;;;;;;;1.92;57.80;101363.70;106144;1272;138342;-72
2022/04/17 03:11:49;;;;;;;11.20;5.40;;;;;;;1.92;58.13;101361.64;106315;1271;97819;-72
2022/04/17 03:14:21;;;;;;;9.20;5.20;;;;;;;1.92;58.17;101361.13;106140;1271;139256;-72
2022/04/17 03:16:53;;;;;;;9.50;5.50;;;;;;;1.94;58.33;101359.10;106313;1273;113266;-72
2022/04/17 03:19:25;;;;;;;12.10;5.30;;;;;;;1.93;58.51;101359.59;106320;1273;108979;-72
2022/04/17 03:21:57;;;;;;;10.90;5.30;;;;;;;1.94;58.60;101363.73;106196;1273;139826;-72
2022/04/17 03:24:29;;;;;;;8.90;5.10;;;;;;;1.96;58.62;101365.31;106297;1272;98282;-72
2022/04/17 03:27:01;;;;;;;8.80;5.30;;;;;;;1.98;58.76;101369.15;106196;1273;139257;-73
2022/04/17 03:29:33;;;;;;;9.30;5.70;;;;;;;2.02;59.11;101368.73;106729;1273;111291;-72
2022/04/17 03:32:07;;;;;;;10.50;5.30;;;;;;;2.06;59.15;101371.89;106288;1271;138461;-71
2022/04/17 03:34:39;;;;;;;13.00;6.00;;;;;;;2.11;59.10;101373.52;106498;1271;107724;-71
2022/04/17 03:37:11;;;;;;;11.00;5.60;;;;;;;2.13;59.05;101378.71;106275;1273;97826;-72
2022/04/17 03:39:44;;;;;;;9.00;5.20;;;;;;;2.18;59.04;101382.26;106226;1271;138341;-72
2022/04/17 03:42:16;;;;;;;9.70;5.30;;;;;;;2.23;59.20;101380.30;106255;1273;112684;-72
2022/04/17 03:44:49;;;;;;;9.50;5.60;;;;;;;2.26;58.86;101377.27;106235;1271;139119;-69
2022/04/17 03:47:20;;;;;;;9.30;5.60;;;;;;;2.22;58.73;101374.79;106331;1271;108846;-72
2022/04/17 03:49:52;;;;;;;11.60;5.40;;;;;;;2.20;58.96;101374.92;106192;1271;138549;-72
2022/04/17 03:52:24;;;;;;;10.20;5.60;;;;;;;2.17;59.27;101371.10;106338;1271;97847;-72
2022/04/17 03:54:56;;;;;;;9.30;5.30;;;;;;;2.21;58.98;101372.20;106305;1271;110796;-72
2022/04/17 03:57:28;;;;;;;11.40;6.00;;;;;;;2.26;59.25;101373.33;106215;1271;139213;-72
2022/04/17 04:00:00;;;;;;;12.30;5.80;;;;;;;2.31;59.12;101370.66;106339;1270;106857;-73
2022/04/17 04:02:43;;;;;;;10.20;5.90;;;;;;;2.31;59.20;101370.31;106285;1270;140656;-72
2022/04/17 04:05:15;;;;;;;9.80;5.50;;;;;;;2.33;59.07;101374.11;106481;1270;97825;-71
2022/04/17 04:07:47;;;;;;;15.50;6.00;;;;;;;2.37;59.16;101373.36;106239;1271;138571;-71
2022/04/17 04:10:20;;;;;;;11.00;5.70;;;;;;;2.39;59.35;101373.41;106515;1270;108858;-72
2022/04/17 04:12:51;;;;;;;10.80;5.00;;;;;;;2.44;59.39;101368.86;106537;1269;108431;-72
2022/04/17 04:15:24;;;;;;;8.50;5.50;;;;;;;2.51;59.38;101371.38;106389;1270;139311;-72
2022/04/17 04:17:56;;;;;;;10.20;5.60;;;;;;;2.55;59.15;101366.85;106489;1270;97832;-71
2022/04/17 04:20:28;;;;;;;8.30;5.20;;;;;;;2.58;59.35;101367.23;106366;1270;139659;-72
2022/04/17 04:23:00;;;;;;;11.70;5.70;;;;;;;2.63;59.26;101365.77;106354;1270;109113;-71
2022/04/17 04:25:31;;;;;;;12.30;5.80;;;;;;;2.63;59.23;101363.53;106386;1270;107891;-72
2022/04/17 04:30:53;;;;;;;10.00;5.70;;;;;;;2.89;59.30;101367.45;106411;1271;97841;-70
2022/04/17 04:33:25;;;;;;;10.30;5.10;;;;;;;3.49;59.41;101365.96;106393;1270;137499;-72
2022/04/17 04:35:58;;;;;;;8.50;4.70;;;;;;;5.08;58.85;101362.23;106423;1270;109001;-72
2022/04/17 04:38:30;;;;;;;8.20;5.00;;;;;;;6.86;56.78;101357.71;106325;1270;137748;-73
2022/04/17 04:41:02;;;;;;;7.70;4.80;;;;;;;8.18;53.74;101354.73;106472;1270;97838;-72
2022/04/17 04:43:35;;;;;;;8.60;4.70;;;;;;;9.35;51.97;101352.70;106658;1269;97809;-72
2022/04/17 04:46:10;;;;;;;8.60;4.80;;;;;;;10.51;50.20;101352.75;106358;1270;137355;-72
2022/04/17 04:51:34;;;;;;;9.10;4.60;;;;;;;12.29;46.12;101353.09;106319;1271;137902;-73
2022/04/17 04:54:07;;;;;;;9.80;4.80;;;;;;;12.96;44.66;101350.14;106517;1270;97803;-73
2022/04/17 04:56:39;;;;;;;8.30;4.40;;;;;;;12.90;43.01;101350.46;106367;1270;138163;-73
2022/04/17 04:59:11;;;;;;;10.00;4.90;;;;;;;12.53;42.34;101352.89;106509;1270;110752;-73
2022/04/17 05:01:43;;;;;;;8.10;4.90;;;;;;;12.03;42.17;101354.31;106399;1271;108264;-73
2022/04/17 05:04:21;;;;;;;7.10;4.80;;;;;;;11.30;42.24;101351.85;106359;1270;137995;-72
2022/04/17 05:06:53;;;;;;;8.80;5.60;;;;;;;10.89;42.86;101354.45;106509;1271;97866;-71
2022/04/17 05:09:26;;;;;;;7.70;5.00;;;;;;;11.38;43.06;101351.71;106388;1270;137714;-71
2022/04/17 05:11:58;;;;;;;9.70;5.00;;;;;;;12.27;42.14;101353.46;106963;1270;112224;-72
2022/04/17 05:14:31;;;;;;;9.60;5.00;;;;;;;12.83;41.62;101348.89;106361;1270;138218;-72
2022/04/17 05:17:03;;;;;;;7.90;3.70;;;;;;;14.34;40.63;101345.69;106655;1270;108863;-72
2022/04/17 05:19:35;;;;;;;10.10;4.40;;;;;;;15.66;38.91;101343.14;106504;1271;97944;-72
2022/04/17 05:22:10;;;;;;;8.50;4.70;;;;;;;16.02;37.45;101341.30;106377;1271;138115;-73
2022/04/17 05:24:43;;;;;;;8.40;5.10;;;;;;;16.90;37.00;101335.38;106469;1271;111823;-72
2022/04/17 05:27:15;;;;;;;9.40;5.00;;;;;;;17.63;35.28;101329.99;106362;1271;138077;-73
2022/04/17 05:29:47;;;;;;;6.30;4.50;;;;;;;17.05;34.45;101331.98;106432;1270;108884;-73
2022/04/17 05:32:19;;;;;;;7.40;4.40;;;;;;;15.93;34.40;101338.45;106335;1270;138023;-72
2022/04/17 05:34:51;;;;;;;8.20;5.00;;;;;;;15.57;35.21;101342.04;106524;1270;97950;-73
2022/04/17 05:37:23;;;;;;;8.20;4.80;;;;;;;16.43;34.97;101342.17;106368;1270;113412;-72
2022/04/17 05:39:55;;;;;;;6.60;4.50;;;;;;;18.02;34.22;101333.70;106324;1271;151509;-72
2022/04/17 05:42:27;;;;;;;8.30;4.60;;;;;;;19.04;32.97;101328.98;106379;1270;107801;-74
2022/04/17 05:44:59;;;;;;;9.00;4.00;;;;;;;20.32;31.89;101324.75;106303;1270;137826;-72
2022/04/17 05:47:31;;;;;;;8.30;4.40;;;;;;;21.61;30.81;101320.94;106344;1271;97944;-74
2022/04/17 05:50:04;;;;;;;6.80;4.10;;;;;;;22.65;29.24;101319.51;106382;1270;138139;-73
2022/04/17 05:52:38;;;;;;;6.40;4.40;;;;;;;23.24;28.30;101319.24;106512;1270;109382;-74
2022/04/17 05:55:11;;;;;;;7.40;4.30;;;;;;;24.07;27.75;101319.71;106401;1270;108843;-73
2022/04/17 05:57:43;;;;;;;6.30;4.30;;;;;;;24.28;26.41;101317.67;106568;1270;137918;-73
2022/04/17 06:00:16;;;;;;;6.40;4.10;;;;;;;23.39;26.14;101317.20;106490;1270;97730;-73
2022/04/17 06:02:49;;;;;;;7.00;4.10;;;;;;;22.82;26.27;101318.94;106522;1270;137732;-73
2022/04/17 06:05:21;;;;;;;9.00;4.00;;;;;;;22.76;26.22;101314.86;106433;1270;108190;-75
2022/04/17 06:07:53;;;;;;;7.20;4.20;;;;;;;22.63;26.08;101317.30;106294;1271;109085;-74
2022/04/17 06:10:25;;;;;;;7.00;4.00;;;;;;;22.81;26.09;101318.95;106253;1270;137729;-74
2022/04/17 06:12:56;;;;;;;6.30;4.00;;;;;;;22.81;25.89;101321.46;106403;1270;98063;-73
2022/04/17 06:15:28;;;;;;;6.50;4.10;;;;;;;22.48;25.69;101327.88;106209;1272;137703;-73
2022/04/17 06:18:00;;;;;;;6.60;4.30;;;;;;;22.05;25.70;101326.90;106473;1270;109018;-73
2022/04/17 06:20:32;;;;;;;7.90;5.00;;;;;;;21.47;25.59;101329.77;106321;1270;138074;-74
2022/04/17 06:23:04;;;;;;;7.90;5.00;;;;;;;21.08;26.02;101329.79;106369;1270;97805;-73
2022/04/17 06:25:36;;;;;;;9.00;5.60;;;;;;;20.83;26.28;101335.98;106482;1270;97822;-73
2022/04/17 06:28:09;;;;;;;8.30;5.00;;;;;;;20.49;26.59;101334.22;106363;1270;137839;-73
2022/04/17 06:30:41;;;;;;;6.50;4.10;;;;;;;20.12;26.69;101335.52;106906;1270;108619;-73
2022/04/17 06:33:14;;;;;;;10.30;5.00;;;;;;;19.42;26.94;101335.23;106520;1270;137975;-74
2022/04/17 06:35:46;;;;;;;11.30;6.40;;;;;;;18.70;27.74;101341.13;106465;1271;97851;-74
2022/04/17 06:38:18;;;;;;;8.80;6.10;;;;;;;18.10;28.12;101341.99;106270;1270;138070;-73
2022/04/17 06:40:49;;;;;;;9.10;5.30;;;;;;;17.76;28.75;101337.38;106508;1271;112473;-72
2022/04/17 06:43:21;;;;;;;8.60;5.00;;;;;;;17.68;28.75;101338.08;106499;1271;108804;-72
2022/04/17 06:45:53;;;;;;;9.20;5.30;;;;;;;17.41;28.77;101336.06;106303;1271;137852;-73
2022/04/17 06:48:25;;;;;;;8.90;4.80;;;;;;;17.50;29.39;101340.41;106464;1270;97819;-73
2022/04/17 06:50:57;;;;;;;9.70;5.60;;;;;;;17.78;29.35;101342.77;106415;1270;137684;-73
2022/04/17 06:53:30;;;;;;;11.90;7.70;;;;;;;17.97;29.28;101338.02;106469;1270;112709;-72
2022/04/17 06:56:01;;;;;;;8.90;4.50;;;;;;;18.07;29.14;101336.81;106483;1270;108563;-74
2022/04/17 06:58:36;;;;;;;7.80;4.30;;;;;;;18.17;28.93;101338.35;106496;1270;139262;-73
2022/04/17 07:01:19;;;;;;;6.90;4.10;;;;;;;18.37;28.97;101342.48;106499;1270;97860;-74
2022/04/17 07:03:51;;;;;;;9.00;4.50;;;;;;;18.83;28.88;101340.13;106439;1270;137846;-74
2022/04/17 07:06:23;;;;;;;7.60;4.90;;;;;;;19.45;28.91;101344.40;106439;1268;112372;-72
2022/04/17 07:08:55;;;;;;;13.70;5.40;;;;;;;20.00;28.10;101347.52;106383;1270;138028;-75
2022/04/17 07:11:27;;;;;;;6.80;4.40;;;;;;;20.69;27.99;101342.10;106509;1270;109154;-73
2022/04/17 07:13:59;;;;;;;6.90;4.50;;;;;;;21.26;27.08;101339.17;106520;1270;97849;-73
2022/04/17 07:16:32;;;;;;;5.20;3.70;;;;;;;21.89;26.80;101338.14;106449;1270;138088;-73
2022/04/17 07:19:04;;;;;;;8.20;4.70;;;;;;;22.90;26.36;101337.68;106711;1270;111484;-75
2022/04/17 07:21:37;;;;;;;6.40;4.70;;;;;;;23.95;25.61;101337.10;106414;1270;137843;-74
2022/04/17 07:24:09;;;;;;;6.00;4.00;;;;;;;24.74;24.48;101330.99;106378;1270;107751;-73
2022/04/17 07:26:41;;;;;;;6.70;4.00;;;;;;;25.43;23.98;101326.48;106367;1270;138440;-73
2022/04/17 07:29:13;;;;;;;7.00;4.00;;;;;;;25.85;23.64;101327.34;106536;1270;97799;-72
2022/04/17 07:31:45;;;;;;;5.30;4.00;;;;;;;26.48;23.17;101324.35;106574;1270;112604;-73
2022/04/17 07:34:17;;;;;;;5.20;3.60;;;;;;;26.52;22.65;101326.89;106402;1270;137965;-73
2022/04/17 07:36:52;;;;;;;7.60;4.00;;;;;;;26.67;22.33;101324.76;106591;1270;109047;-73
2022/04/17 07:39:24;;;;;;;5.60;3.60;;;;;;;26.88;22.01;101322.31;106362;1270;138125;-73
2022/04/17 07:41:56;;;;;;;8.40;3.70;;;;;;;27.15;21.51;101321.11;106333;1271;97835;-73
2022/04/17 07:44:29;;;;;;;5.10;3.60;;;;;;;27.44;21.42;101323.26;106352;1270;138591;-73
2022/04/17 07:47:01;;;;;;;6.40;3.60;;;;;;;27.96;21.11;101322.52;106558;1271;108479;-72
2022/04/17 07:49:39;;;;;;;4.90;3.70;;;;;;;28.40;20.72;101315.59;106423;1270;109149;-75
2022/04/17 07:52:12;;;;;;;5.50;3.50;;;;;;;28.68;20.08;101311.55;106366;1270;137844;-73
2022/04/17 07:54:50;;;;;;;4.60;3.60;;;;;;;29.05;19.74;101306.23;106691;1270;97773;-74
2022/04/17 07:57:22;;;;;;;6.70;5.10;;;;;;;29.43;19.76;101306.70;106476;1271;137791;-74
2022/04/17 07:59:55;;;;;;;7.50;4.70;;;;;;;30.25;19.66;101304.66;106473;1270;108322;-72
2022/04/17 08:02:50;;;;;;;6.10;3.80;;;;;;;31.12;19.03;101300.60;106384;1270;138200;-74
2022/04/17 08:05:23;;;;;;;4.90;3.70;;;;;;;31.48;18.38;101298.48;106366;1271;97912;-74
2022/04/17 08:07:55;;;;;;;6.80;3.70;;;;;;;31.46;18.24;101296.55;106426;1270;97838;-74
2022/04/17 08:10:27;;;;;;;5.70;3.30;;;;;;;31.85;18.07;101300.03;106398;1270;138236;-73
2022/04/17 08:12:59;;;;;;;5.40;3.20;;;;;;;32.25;18.02;101296.48;106433;1270;108892;-74
2022/04/17 08:15:32;;;;;;;5.00;3.60;;;;;;;32.41;16.98;101298.54;106424;1270;137811;-73
2022/04/17 08:18:04;;;;;;;5.80;3.50;;;;;;;32.55;17.20;101295.98;106432;1270;97830;-74
2022/04/17 08:20:36;;;;;;;5.70;3.40;;;;;;;32.64;16.68;101291.90;106513;1270;138443;-74
2022/04/17 08:23:08;;;;;;;6.10;3.50;;;;;;;32.42;16.47;101293.37;106473;1270;112387;-74
2022/04/17 08:25:40;;;;;;;4.90;3.60;;;;;;;31.91;16.32;101298.35;106505;1270;107726;-73
2022/04/17 08:28:13;;;;;;;6.70;3.90;;;;;;;31.71;16.23;101290.86;106287;1271;137980;-73
2022/04/17 08:30:45;;;;;;;5.00;3.40;;;;;;;31.31;16.27;101294.56;106321;1271;97811;-74
2022/04/17 08:33:17;;;;;;;4.00;3.10;;;;;;;31.11;16.57;101295.31;106312;1270;137825;-74
2022/04/17 08:35:49;;;;;;;4.40;3.10;;;;;;;31.21;16.55;101294.13;106681;1271;112562;-75
2022/04/17 08:38:22;;;;;;;4.70;3.30;;;;;;;31.04;16.82;101294.98;106309;1270;138165;-74
2022/04/17 08:40:57;;;;;;;5.80;3.90;;;;;;;31.21;16.86;101291.73;106427;1270;107557;-74
2022/04/17 08:43:31;;;;;;;6.30;3.90;;;;;;;31.30;16.47;101294.50;106448;1270;97816;-74
2022/04/17 08:46:03;;;;;;;4.30;3.40;;;;;;;31.37;16.73;101289.59;106424;1270;137928;-74
2022/04/17 08:48:37;;;;;;;7.60;3.90;;;;;;;31.62;16.54;101289.48;106515;1270;111613;-73
2022/04/17 08:51:10;;;;;;;4.70;3.60;;;;;;;31.76;16.68;101283.17;106480;1270;137823;-73
2022/04/17 08:53:43;;;;;;;4.80;3.50;;;;;;;31.47;16.15;101280.61;106381;1270;108888;-74
2022/04/17 08:56:15;;;;;;;4.60;3.50;;;;;;;30.88;16.19;101277.05;106292;1270;138384;-73
2022/04/17 08:58:47;;;;;;;3.80;3.00;;;;;;;30.64;16.17;101274.21;106434;1270;97841;-75
2022/04/17 09:01:21;;;;;;;5.50;3.10;;;;;;;30.48;16.42;101271.84;106457;1270;111682;-74
2022/04/17 09:03:53;;;;;;;4.00;3.00;;;;;;;30.48;16.27;101263.93;106432;1270;137801;-73
2022/04/17 09:06:25;;;;;;;5.00;3.30;;;;;;;30.19;16.10;101260.04;106525;1270;108742;-74
2022/04/17 09:09:02;;;;;;;5.10;3.70;;;;;;;29.67;16.29;101257.95;106403;1270;138091;-73
2022/04/17 09:11:35;;;;;;;4.80;3.50;;;;;;;29.46;16.57;101258.17;106761;1270;97805;-73
2022/04/17 09:14:07;;;;;;;3.80;3.20;;;;;;;29.55;16.89;101252.48;106450;1270;111762;-73
2022/04/17 09:16:40;;;;;;;4.70;3.10;;;;;;;29.83;17.01;101248.71;106467;1270;137743;-73
2022/04/17 09:19:17;;;;;;;4.10;3.50;;;;;;;30.09;16.79;101245.61;106474;1270;108789;-72
2022/04/17 09:21:56;;;;;;;5.80;3.70;;;;;;;30.16;16.63;101240.16;106460;1270;138055;-75
2022/04/17 09:24:28;;;;;;;4.20;3.80;;;;;;;29.84;16.38;101233.67;106636;1270;97857;-74
2022/04/17 09:27:01;;;;;;;4.20;3.80;;;;;;;29.12;16.06;101232.26;106415;1270;139566;-73
2022/04/17 09:29:35;;;;;;;4.60;3.40;;;;;;;28.41;16.99;101233.16;106540;1270;108303;-74
2022/04/17 09:32:09;;;;;;;7.40;3.80;;;;;;;28.28;17.21;101228.58;106527;1270;109147;-73
2022/04/17 09:34:46;;;;;;;4.80;3.40;;;;;;;27.45;17.12;101230.32;106564;1270;138210;-72
2022/04/17 09:37:20;;;;;;;3.80;2.80;;;;;;;27.09;17.85;101232.36;106544;1271;98164;-74
2022/04/17 09:39:53;;;;;;;2.50;2.10;;;;;;;27.54;17.39;101224.67;106319;1270;137693;-72
2022/04/17 09:42:29;;;;;;;3.30;2.80;;;;;;;27.82;17.13;101222.54;106446;1271;108202;-73
2022/04/17 09:45:01;;;;;;;3.40;2.50;;;;;;;28.20;17.14;101214.80;106255;1270;138143;-74
2022/04/17 09:47:33;;;;;;;3.00;2.60;;;;;;;28.44;17.07;101212.88;106536;1270;97922;-73
2022/04/17 09:50:08;;;;;;;3.00;2.60;;;;;;;28.50;16.74;101199.21;106471;1270;97911;-73
2022/04/17 09:52:48;;;;;;;3.20;2.50;;;;;;;28.77;16.65;101200.33;106512;1270;137436;-73
2022/04/17 09:55:28;;;;;;;3.20;2.90;;;;;;;29.22;16.75;101198.73;106562;1271;108839;-74
2022/04/17 09:58:00;;;;;;;3.70;3.10;;;;;;;29.21;16.58;101191.40;106388;1270;137985;-74
2022/04/17 10:00:43;;;;;;;3.30;3.00;;;;;;;29.02;15.91;101180.41;106437;1269;97880;-74
2022/04/17 10:03:15;;;;;;;3.70;3.00;;;;;;;28.16;15.80;101182.36;106399;1270;137900;-74
2022/04/17 10:05:48;;;;;;;3.40;2.80;;;;;;;27.48;16.15;101184.27;106350;1273;112633;-74
2022/04/17 10:08:20;;;;;;;3.20;2.90;;;;;;;27.44;16.60;101183.73;106356;1270;138646;-74
2022/04/17 10:10:52;;;;;;;2.60;2.40;;;;;;;27.61;16.57;101176.52;106765;1270;108906;-73
2022/04/17 10:13:25;;;;;;;4.60;2.60;;;;;;;27.09;16.54;101175.59;106480;1270;97814;-73
2022/04/17 10:16:01;;;;;;;4.20;2.60;;;;;;;26.45;16.42;101168.00;106385;1271;137842;-75
2022/04/17 10:18:37;;;;;;;3.40;2.70;;;;;;;26.24;17.00;101164.42;106644;1270;111351;-73
2022/04/17 10:21:10;;;;;;;5.80;3.40;;;;;;;26.38;17.07;101161.13;106452;1270;138948;-75
2022/04/17 10:23:45;;;;;;;3.40;3.00;;;;;;;26.73;17.14;101159.59;106474;1270;108265;-74
2022/04/17 10:26:18;;;;;;;4.50;3.30;;;;;;;27.00;17.12;101152.84;106637;1271;97819;-74
2022/04/17 10:28:56;;;;;;;5.00;2.40;;;;;;;26.37;16.41;101145.36;106369;1271;137674;-74
2022/04/17 10:31:38;;;;;;;2.30;2.10;;;;;;;25.32;16.69;101149.50;106432;1271;112586;-74
2022/04/17 10:34:36;;;;;;;3.00;2.20;;;;;;;24.56;16.93;101141.02;106336;1271;138077;-73
2022/04/17 10:37:22;;;;;;;;;;;;;;;23.24;17.14;101139.33;106501;1270;108416;-72
2022/04/17 10:39:57;;;;;;;4.40;2.80;;;;;;;22.19;17.79;101135.73;106427;1270;125435;-75
2022/04/17 10:42:37;;;;;;;3.60;2.40;;;;;;;21.30;18.26;101141.13;106544;1270;97811;-73
2022/04/17 10:45:11;;;;;;;4.40;2.40;;;;;;;20.53;18.69;101141.61;106321;1270;138020;-73
2022/04/17 10:47:43;;;;;;;2.80;2.10;;;;;;;19.96;19.17;101141.74;106748;1270;109269;-74
2022/04/17 10:50:21;;;;;;;3.30;2.20;;;;;;;19.70;19.49;101139.83;106535;1270;108889;-74
2022/04/17 10:52:57;;;;;;;3.30;2.30;;;;;;;19.54;20.02;101134.58;106323;1270;138033;-71
2022/04/17 10:55:29;;;;;;;4.00;2.20;;;;;;;19.55;20.35;101129.91;106372;1271;97881;-75
2022/04/17 10:58:01;;;;;;;4.10;2.40;;;;;;;19.76;20.37;101124.17;106339;1270;137915;-73
2022/04/17 11:00:36;;;;;;;3.50;2.60;;;;;;;19.89;20.15;101120.79;106433;1271;108698;-73
2022/04/17 11:03:26;;;;;;;3.90;3.20;;;;;;;19.50;20.36;101117.30;106591;1270;137944;-71
2022/04/17 11:06:12;;;;;;;4.80;3.70;;;;;;;19.20;20.55;101118.39;106495;1270;97814;-72
2022/04/17 11:08:56;;;;;;;2.80;2.30;;;;;;;19.31;20.94;101115.85;106351;1270;137964;-74
2022/04/17 11:11:38;;;;;;;3.40;2.50;;;;;;;19.48;21.05;101109.98;106594;1270;112345;-72
2022/04/17 11:14:16;;;;;;;3.90;2.20;;;;;;;19.68;20.69;101102.22;106517;1270;109068;-73
2022/04/17 11:16:57;;;;;;;2.70;1.80;;;;;;;19.90;20.65;101094.39;106654;1270;139259;-73
2022/04/17 11:19:31;;;;;;;2.20;1.60;;;;;;;20.12;20.04;101089.95;106600;1271;97846;-74
2022/04/17 11:22:04;;;;;;;2.10;1.90;;;;;;;20.29;19.52;101088.10;106385;1270;139159;-74
2022/04/17 11:25:05;;;;;;;3.20;1.90;;;;;;;20.41;19.15;101084.70;106588;1270;111440;-72
2022/04/17 11:27:41;;;;;;;3.30;1.80;;;;;;;20.58;19.33;101079.86;106654;1270;137865;-72
2022/04/17 11:30:36;;;;;;;2.30;2.10;;;;;;;20.77;19.40;101069.27;106494;1270;109020;-75
2022/04/17 11:33:08;;;;;;;2.40;2.00;;;;;;;20.64;19.23;101060.05;106463;1268;139020;-76
2022/04/17 11:35:42;;;;;;;2.30;2.10;;;;;;;20.43;19.41;101063.23;106424;1270;97824;-75
2022/04/17 11:38:14;;;;;;;2.10;1.90;;;;;;;20.45;19.34;101057.23;106487;1270;111446;-74
2022/04/17 11:40:50;;;;;;;3.40;2.50;;;;;;;20.42;19.22;101049.50;106412;1270;139135;-73
2022/04/17 11:43:22;;;;;;;2.70;1.80;;;;;;;20.10;19.24;101049.10;106530;1270;109442;-73
2022/04/17 11:46:05;;;;;;;2.70;2.00;;;;;;;19.84;19.41;101051.00;106450;1270;138012;-74
2022/04/17 11:48:37;;;;;;;5.70;2.30;;;;;;;19.70;19.28;101044.39;106537;1271;97942;-73
2022/04/17 11:51:21;;;;;;;2.90;2.10;;;;;;;19.64;19.32;101041.58;106418;1270;137822;-74
2022/04/17 11:53:53;;;;;;;3.00;2.30;;;;;;;19.79;19.67;101040.50;106692;1270;108045;-74
2022/04/17 11:56:45;;;;;;;2.50;1.90;;;;;;;19.90;19.91;101036.35;106386;1271;107745;-74
2022/04/17 11:59:17;;;;;;;4.30;2.30;;;;;;;19.64;19.66;101034.50;106430;1271;97835;-75